sensor_id;sensor_type;location;lat;lon;timestamp;P1;durP1;ratioP1;P2;durP2;ratioP2
36185;SDS011;22228;53.222;7.446;2024-01-07T00:01:38;8.43;;;7.53;;
36185;SDS011;22228;53.222;7.446;2024-01-07T00:04:58;7.63;;;6.87;;
36185;SDS011;22228;53.222;7.446;2024-01-07T00:08:21;8.67;;;7.27;;
36185;SDS011;22228;53.222;7.446;2024-01-07T00:11:42;7.50;;;6.80;;
36185;SDS011;22228;53.222;7.446;2024-01-07T00:15:03;8.63;;;7.80;;
36185;SDS011;22228;53.222;7.446;2024-01-07T00:18:23;8.30;;;7.43;;
36185;SDS011;22228;53.222;7.446;2024-01-07T00:21:46;10.43;;;8.07;;
36185;SDS011;22228;53.222;7.446;2024-01-07T00:25:08;7.70;;;6.90;;
36185;SDS011;22228;53.222;7.446;2024-01-07T00:28:28;10.27;;;7.33;;
36185;SDS011;22228;53.222;7.446;2024-01-07T00:31:49;7.83;;;6.63;;
36185;SDS011;22228;53.222;7.446;2024-01-07T00:35:09;7.90;;;7.10;;
36185;SDS011;22228;53.222;7.446;2024-01-07T00:38:29;6.93;;;6.43;;
36185;SDS011;22228;53.222;7.446;2024-01-07T00:41:51;6.40;;;5.80;;
36185;SDS011;22228;53.222;7.446;2024-01-07T00:45:12;7.77;;;6.30;;
36185;SDS011;22228;53.222;7.446;2024-01-07T00:48:32;6.67;;;5.90;;
36185;SDS011;22228;53.222;7.446;2024-01-07T00:51:53;7.23;;;5.63;;
36185;SDS011;22228;53.222;7.446;2024-01-07T00:55:13;7.30;;;5.40;;
36185;SDS011;22228;53.222;7.446;2024-01-07T00:58:36;5.93;;;4.93;;
36185;SDS011;22228;53.222;7.446;2024-01-07T01:01:57;5.93;;;5.37;;
36185;SDS011;22228;53.222;7.446;2024-01-07T01:05:17;5.90;;;5.30;;
36185;SDS011;22228;53.222;7.446;2024-01-07T01:08:38;5.77;;;4.30;;
36185;SDS011;22228;53.222;7.446;2024-01-07T01:11:59;4.57;;;4.13;;
36185;SDS011;22228;53.222;7.446;2024-01-07T04:02:28;2.17;;;1.40;;
36185;SDS011;22228;53.222;7.446;2024-01-07T04:05:48;2.00;;;1.80;;
36185;SDS011;22228;53.222;7.446;2024-01-07T04:09:09;2.33;;;2.03;;
36185;SDS011;22228;53.222;7.446;2024-01-07T04:12:29;2.07;;;1.70;;
36185;SDS011;22228;53.222;7.446;2024-01-07T04:15:50;3.00;;;1.50;;
36185;SDS011;22228;53.222;7.446;2024-01-07T04:19:12;4.57;;;1.50;;
36185;SDS011;22228;53.222;7.446;2024-01-07T04:22:32;2.53;;;1.40;;
36185;SDS011;22228;53.222;7.446;2024-01-07T04:25:53;2.43;;;1.30;;
36185;SDS011;22228;53.222;7.446;2024-01-07T04:29:13;2.83;;;1.60;;
36185;SDS011;22228;53.222;7.446;2024-01-07T04:32:33;4.00;;;1.30;;
36185;SDS011;22228;53.222;7.446;2024-01-07T04:35:55;2.20;;;1.20;;
36185;SDS011;22228;53.222;7.446;2024-01-07T04:39:17;1.50;;;1.40;;
36185;SDS011;22228;53.222;7.446;2024-01-07T04:42:38;2.43;;;1.30;;
36185;SDS011;22228;53.222;7.446;2024-01-07T04:45:58;1.60;;;1.47;;
36185;SDS011;22228;53.222;7.446;2024-01-07T04:49:19;1.97;;;1.57;;
36185;SDS011;22228;53.222;7.446;2024-01-07T04:52:41;1.30;;;1.20;;
36185;SDS011;22228;53.222;7.446;2024-01-07T04:56:01;2.40;;;1.30;;
36185;SDS011;22228;53.222;7.446;2024-01-07T04:59:22;2.53;;;1.20;;
36185;SDS011;22228;53.222;7.446;2024-01-07T05:02:43;2.50;;;1.53;;
36185;SDS011;22228;53.222;7.446;2024-01-07T05:06:03;1.93;;;1.30;;
36185;SDS011;22228;53.222;7.446;2024-01-07T05:09:25;1.30;;;1.20;;
36185;SDS011;22228;53.222;7.446;2024-01-07T05:12:45;0.90;;;0.90;;
36185;SDS011;22228;53.222;7.446;2024-01-07T05:16:06;1.07;;;0.90;;
36185;SDS011;22228;53.222;7.446;2024-01-07T05:19:26;2.50;;;1.30;;
36185;SDS011;22228;53.222;7.446;2024-01-07T05:22:47;1.27;;;1.17;;
36185;SDS011;22228;53.222;7.446;2024-01-07T05:26:09;1.93;;;1.20;;
36185;SDS011;22228;53.222;7.446;2024-01-07T05:29:29;1.20;;;1.03;;
36185;SDS011;22228;53.222;7.446;2024-01-07T05:32:52;1.67;;;1.03;;
36185;SDS011;22228;53.222;7.446;2024-01-07T05:36:13;1.67;;;1.30;;
36185;SDS011;22228;53.222;7.446;2024-01-07T05:39:34;3.03;;;1.33;;
36185;SDS011;22228;53.222;7.446;2024-01-07T05:42:56;2.27;;;1.00;;
36185;SDS011;22228;53.222;7.446;2024-01-07T05:46:16;1.20;;;1.10;;
36185;SDS011;22228;53.222;7.446;2024-01-07T05:49:37;3.00;;;1.10;;
36185;SDS011;22228;53.222;7.446;2024-01-07T05:52:57;1.73;;;1.23;;
36185;SDS011;22228;53.222;7.446;2024-01-07T05:56:18;2.90;;;1.20;;
36185;SDS011;22228;53.222;7.446;2024-01-07T05:59:39;1.30;;;1.07;;
36185;SDS011;22228;53.222;7.446;2024-01-07T06:03:00;1.20;;;1.10;;
36185;SDS011;22228;53.222;7.446;2024-01-07T06:06:20;4.20;;;1.27;;
36185;SDS011;22228;53.222;7.446;2024-01-07T06:09:41;1.03;;;0.93;;
36185;SDS011;22228;53.222;7.446;2024-01-07T06:13:01;2.50;;;1.10;;
36185;SDS011;22228;53.222;7.446;2024-01-07T06:16:23;1.83;;;1.10;;
36185;SDS011;22228;53.222;7.446;2024-01-07T06:19:44;3.47;;;1.40;;
36185;SDS011;22228;53.222;7.446;2024-01-07T06:23:04;1.60;;;0.97;;
36185;SDS011;22228;53.222;7.446;2024-01-07T06:26:25;3.33;;;1.60;;
36185;SDS011;22228;53.222;7.446;2024-01-07T06:29:45;1.23;;;1.10;;
36185;SDS011;22228;53.222;7.446;2024-01-07T06:33:07;1.67;;;1.10;;
36185;SDS011;22228;53.222;7.446;2024-01-07T06:36:28;2.13;;;1.00;;
36185;SDS011;22228;53.222;7.446;2024-01-07T06:39:48;1.33;;;1.20;;
36185;SDS011;22228;53.222;7.446;2024-01-07T06:43:09;1.30;;;1.20;;
36185;SDS011;22228;53.222;7.446;2024-01-07T06:46:29;1.53;;;0.90;;
36185;SDS011;22228;53.222;7.446;2024-01-07T06:49:51;1.73;;;1.03;;
36185;SDS011;22228;53.222;7.446;2024-01-07T06:53:11;2.57;;;1.20;;
36185;SDS011;22228;53.222;7.446;2024-01-07T06:56:32;1.77;;;1.07;;
36185;SDS011;22228;53.222;7.446;2024-01-07T06:59:52;1.20;;;1.10;;
36185;SDS011;22228;53.222;7.446;2024-01-07T07:03:13;2.30;;;1.47;;
36185;SDS011;22228;53.222;7.446;2024-01-07T07:06:35;2.13;;;1.10;;
36185;SDS011;22228;53.222;7.446;2024-01-07T07:09:55;1.83;;;1.00;;
36185;SDS011;22228;53.222;7.446;2024-01-07T07:13:16;2.20;;;1.30;;
36185;SDS011;22228;53.222;7.446;2024-01-07T07:16:36;1.87;;;1.40;;
36185;SDS011;22228;53.222;7.446;2024-01-07T07:19:57;0.70;;;0.70;;
36185;SDS011;22228;53.222;7.446;2024-01-07T07:23:19;1.20;;;0.97;;
36185;SDS011;22228;53.222;7.446;2024-01-07T07:26:39;1.50;;;0.90;;
36185;SDS011;22228;53.222;7.446;2024-01-07T07:30:00;1.63;;;1.03;;
36185;SDS011;22228;53.222;7.446;2024-01-07T07:33:20;1.57;;;1.00;;
36185;SDS011;22228;53.222;7.446;2024-01-07T07:36:41;1.33;;;1.20;;
36185;SDS011;22228;53.222;7.446;2024-01-07T07:40:05;1.30;;;1.20;;
36185;SDS011;22228;53.222;7.446;2024-01-07T07:43:26;1.87;;;1.13;;
36185;SDS011;22228;53.222;7.446;2024-01-07T07:46:47;2.97;;;1.90;;
36185;SDS011;22228;53.222;7.446;2024-01-07T07:50:07;2.77;;;1.60;;
36185;SDS011;22228;53.222;7.446;2024-01-07T07:53:29;5.20;;;4.53;;
36185;SDS011;22228;53.222;7.446;2024-01-07T07:56:51;10.90;;;9.80;;
36185;SDS011;22228;53.222;7.446;2024-01-07T08:00:11;3.43;;;2.70;;
36185;SDS011;22228;53.222;7.446;2024-01-07T08:03:32;1.90;;;1.80;;
36185;SDS011;22228;53.222;7.446;2024-01-07T08:06:53;1.87;;;1.63;;
36185;SDS011;22228;53.222;7.446;2024-01-07T08:10:14;1.50;;;1.40;;
36185;SDS011;22228;53.222;7.446;2024-01-07T08:13:36;3.37;;;1.40;;
36185;SDS011;22228;53.222;7.446;2024-01-07T08:16:57;3.07;;;1.70;;
36185;SDS011;22228;53.222;7.446;2024-01-07T08:20:17;2.90;;;1.77;;
36185;SDS011;22228;53.222;7.446;2024-01-07T08:23:38;1.47;;;1.20;;
36185;SDS011;22228;53.222;7.446;2024-01-07T08:26:58;1.10;;;1.07;;
36185;SDS011;22228;53.222;7.446;2024-01-07T08:30:20;1.70;;;1.30;;
36185;SDS011;22228;53.222;7.446;2024-01-07T08:33:42;1.67;;;1.00;;
36185;SDS011;22228;53.222;7.446;2024-01-07T08:37:02;1.20;;;1.10;;
36185;SDS011;22228;53.222;7.446;2024-01-07T08:40:23;1.57;;;1.30;;
36185;SDS011;22228;53.222;7.446;2024-01-07T08:43:44;1.17;;;1.10;;
36185;SDS011;22228;53.222;7.446;2024-01-07T08:47:05;2.60;;;1.30;;
36185;SDS011;22228;53.222;7.446;2024-01-07T08:50:26;3.87;;;1.67;;
36185;SDS011;22228;53.222;7.446;2024-01-07T08:53:46;3.37;;;1.00;;
36185;SDS011;22228;53.222;7.446;2024-01-07T08:57:07;1.67;;;1.10;;
36185;SDS011;22228;53.222;7.446;2024-01-07T09:00:28;1.40;;;1.30;;
36185;SDS011;22228;53.222;7.446;2024-01-07T09:03:51;2.80;;;1.30;;
36185;SDS011;22228;53.222;7.446;2024-01-07T09:07:11;2.20;;;1.20;;
36185;SDS011;22228;53.222;7.446;2024-01-07T09:10:34;4.53;;;1.80;;
36185;SDS011;22228;53.222;7.446;2024-01-07T09:13:55;1.50;;;1.40;;
36185;SDS011;22228;53.222;7.446;2024-01-07T09:17:15;2.83;;;1.87;;
36185;SDS011;22228;53.222;7.446;2024-01-07T09:20:38;3.23;;;1.90;;
36185;SDS011;22228;53.222;7.446;2024-01-07T09:23:59;3.70;;;3.33;;
36185;SDS011;22228;53.222;7.446;2024-01-07T09:27:20;11.97;;;10.23;;
36185;SDS011;22228;53.222;7.446;2024-01-07T09:30:40;5.20;;;3.13;;
36185;SDS011;22228;53.222;7.446;2024-01-07T09:34:01;15.17;;;9.43;;
36185;SDS011;22228;53.222;7.446;2024-01-07T09:37:24;2.37;;;1.30;;
36185;SDS011;22228;53.222;7.446;2024-01-07T09:40:44;1.80;;;1.40;;
36185;SDS011;22228;53.222;7.446;2024-01-07T09:44:04;1.33;;;1.23;;
36185;SDS011;22228;53.222;7.446;2024-01-07T09:47:28;1.57;;;1.37;;
36185;SDS011;22228;53.222;7.446;2024-01-07T09:50:48;3.20;;;1.20;;
36185;SDS011;22228;53.222;7.446;2024-01-07T09:54:10;1.90;;;1.37;;
36185;SDS011;22228;53.222;7.446;2024-01-07T09:57:33;4.00;;;1.80;;
36185;SDS011;22228;53.222;7.446;2024-01-07T10:00:54;1.83;;;1.47;;
36185;SDS011;22228;53.222;7.446;2024-01-07T10:04:14;3.43;;;3.17;;
36185;SDS011;22228;53.222;7.446;2024-01-07T10:07:34;3.47;;;1.50;;
36185;SDS011;22228;53.222;7.446;2024-01-07T10:10:56;3.30;;;3.00;;
36185;SDS011;22228;53.222;7.446;2024-01-07T10:18:02;9.23;;;5.20;;
36185;SDS011;22228;53.222;7.446;2024-01-07T10:21:23;3.83;;;3.53;;
36185;SDS011;22228;53.222;7.446;2024-01-07T10:24:44;4.10;;;3.70;;
36185;SDS011;22228;53.222;7.446;2024-01-07T10:28:06;7.07;;;4.10;;
36185;SDS011;22228;53.222;7.446;2024-01-07T10:31:26;7.30;;;4.80;;
36185;SDS011;22228;53.222;7.446;2024-01-07T10:34:48;6.17;;;4.20;;
36185;SDS011;22228;53.222;7.446;2024-01-07T10:38:11;5.27;;;3.93;;
36185;SDS011;22228;53.222;7.446;2024-01-07T10:41:31;4.53;;;3.60;;
36185;SDS011;22228;53.222;7.446;2024-01-07T10:44:55;5.07;;;4.07;;
36185;SDS011;22228;53.222;7.446;2024-01-07T10:48:17;3.93;;;3.53;;
36185;SDS011;22228;53.222;7.446;2024-01-07T10:51:38;22.87;;;14.93;;
36185;SDS011;22228;53.222;7.446;2024-01-07T10:55:02;6.43;;;5.00;;
36185;SDS011;22228;53.222;7.446;2024-01-07T10:58:29;10.97;;;7.27;;
36185;SDS011;22228;53.222;7.446;2024-01-07T11:01:52;15.53;;;11.73;;
36185;SDS011;22228;53.222;7.446;2024-01-07T11:05:14;7.33;;;5.07;;
36185;SDS011;22228;53.222;7.446;2024-01-07T11:08:41;4.80;;;4.27;;
36185;SDS011;22228;53.222;7.446;2024-01-07T11:12:06;5.23;;;4.17;;
36185;SDS011;22228;53.222;7.446;2024-01-07T11:22:46;6.77;;;4.67;;
36185;SDS011;22228;53.222;7.446;2024-01-07T11:26:06;8.63;;;7.17;;
36185;SDS011;22228;53.222;7.446;2024-01-07T11:29:28;53.47;;;34.80;;
36185;SDS011;22228;53.222;7.446;2024-01-07T11:32:57;23.30;;;15.47;;
36185;SDS011;22228;53.222;7.446;2024-01-07T11:36:18;33.33;;;21.67;;
36185;SDS011;22228;53.222;7.446;2024-01-07T11:39:40;20.40;;;12.90;;
36185;SDS011;22228;53.222;7.446;2024-01-07T11:43:02;14.17;;;8.70;;
36185;SDS011;22228;53.222;7.446;2024-01-07T11:46:24;9.70;;;5.70;;
36185;SDS011;22228;53.222;7.446;2024-01-07T11:49:45;19.20;;;12.50;;
36185;SDS011;22228;53.222;7.446;2024-01-07T11:53:06;7.17;;;6.33;;
36185;SDS011;22228;53.222;7.446;2024-01-07T11:56:28;5.37;;;3.90;;
36185;SDS011;22228;53.222;7.446;2024-01-07T11:59:48;8.03;;;6.13;;
36185;SDS011;22228;53.222;7.446;2024-01-07T12:03:09;8.30;;;7.43;;
36185;SDS011;22228;53.222;7.446;2024-01-07T12:06:30;5.63;;;4.00;;
36185;SDS011;22228;53.222;7.446;2024-01-07T12:09:54;5.67;;;4.13;;
36185;SDS011;22228;53.222;7.446;2024-01-07T12:13:18;5.77;;;4.67;;
36185;SDS011;22228;53.222;7.446;2024-01-07T12:16:39;4.67;;;4.13;;
36185;SDS011;22228;53.222;7.446;2024-01-07T12:20:00;3.47;;;3.13;;
36185;SDS011;22228;53.222;7.446;2024-01-07T12:23:24;9.37;;;7.60;;
36185;SDS011;22228;53.222;7.446;2024-01-07T12:26:45;9.17;;;7.33;;
36185;SDS011;22228;53.222;7.446;2024-01-07T12:30:08;9.30;;;6.80;;
36185;SDS011;22228;53.222;7.446;2024-01-07T12:33:29;5.70;;;3.80;;
36185;SDS011;22228;53.222;7.446;2024-01-07T12:36:50;5.77;;;4.90;;
36185;SDS011;22228;53.222;7.446;2024-01-07T12:40:12;7.80;;;5.73;;
36185;SDS011;22228;53.222;7.446;2024-01-07T12:43:32;8.40;;;7.33;;
36185;SDS011;22228;53.222;7.446;2024-01-07T12:46:54;7.87;;;5.80;;
36185;SDS011;22228;53.222;7.446;2024-01-07T12:50:15;7.03;;;5.60;;
36185;SDS011;22228;53.222;7.446;2024-01-07T12:53:35;5.13;;;4.40;;
36185;SDS011;22228;53.222;7.446;2024-01-07T12:56:56;4.77;;;3.87;;
36185;SDS011;22228;53.222;7.446;2024-01-07T13:00:19;4.43;;;4.13;;
36185;SDS011;22228;53.222;7.446;2024-01-07T13:03:41;4.83;;;3.50;;
36185;SDS011;22228;53.222;7.446;2024-01-07T13:07:01;4.03;;;3.53;;
36185;SDS011;22228;53.222;7.446;2024-01-07T13:10:23;6.43;;;4.57;;
36185;SDS011;22228;53.222;7.446;2024-01-07T13:13:44;5.60;;;4.63;;
36185;SDS011;22228;53.222;7.446;2024-01-07T13:17:04;4.70;;;3.30;;
36185;SDS011;22228;53.222;7.446;2024-01-07T13:20:26;4.63;;;3.10;;
36185;SDS011;22228;53.222;7.446;2024-01-07T13:23:46;4.13;;;3.73;;
36185;SDS011;22228;53.222;7.446;2024-01-07T13:27:07;4.17;;;3.77;;
36185;SDS011;22228;53.222;7.446;2024-01-07T13:30:28;3.33;;;3.03;;
36185;SDS011;22228;53.222;7.446;2024-01-07T13:33:49;6.13;;;5.40;;
36185;SDS011;22228;53.222;7.446;2024-01-07T13:37:11;4.77;;;3.80;;
36185;SDS011;22228;53.222;7.446;2024-01-07T13:40:31;5.90;;;5.27;;
36185;SDS011;22228;53.222;7.446;2024-01-07T13:43:52;12.17;;;7.67;;
36185;SDS011;22228;53.222;7.446;2024-01-07T13:47:17;8.90;;;6.93;;
36185;SDS011;22228;53.222;7.446;2024-01-07T13:50:37;12.30;;;7.40;;
36185;SDS011;22228;53.222;7.446;2024-01-07T13:54:00;6.50;;;5.00;;
36185;SDS011;22228;53.222;7.446;2024-01-07T13:57:21;16.43;;;10.13;;
36185;SDS011;22228;53.222;7.446;2024-01-07T14:00:42;7.67;;;4.10;;
36185;SDS011;22228;53.222;7.446;2024-01-07T14:04:03;6.33;;;4.53;;
36185;SDS011;22228;53.222;7.446;2024-01-07T14:07:24;22.90;;;13.70;;
36185;SDS011;22228;53.222;7.446;2024-01-07T14:10:46;38.80;;;19.10;;
36185;SDS011;22228;53.222;7.446;2024-01-07T14:14:06;12.90;;;7.00;;
36185;SDS011;22228;53.222;7.446;2024-01-07T14:17:27;13.97;;;7.33;;
36185;SDS011;22228;53.222;7.446;2024-01-07T14:20:50;34.67;;;15.83;;
36185;SDS011;22228;53.222;7.446;2024-01-07T14:24:11;46.43;;;22.10;;
36185;SDS011;22228;53.222;7.446;2024-01-07T14:27:33;22.97;;;11.83;;
36185;SDS011;22228;53.222;7.446;2024-01-07T14:30:54;28.30;;;14.83;;
36185;SDS011;22228;53.222;7.446;2024-01-07T14:34:14;20.83;;;10.67;;
36185;SDS011;22228;53.222;7.446;2024-01-07T14:37:35;25.33;;;13.60;;
36185;SDS011;22228;53.222;7.446;2024-01-07T14:40:55;12.57;;;7.90;;
36185;SDS011;22228;53.222;7.446;2024-01-07T14:44:17;27.07;;;13.93;;
36185;SDS011;22228;53.222;7.446;2024-01-07T14:47:38;26.07;;;13.57;;
36185;SDS011;22228;53.222;7.446;2024-01-07T14:50:59;40.27;;;21.87;;
36185;SDS011;22228;53.222;7.446;2024-01-07T14:54:21;13.07;;;7.83;;
36185;SDS011;22228;53.222;7.446;2024-01-07T14:57:41;14.67;;;9.90;;
36185;SDS011;22228;53.222;7.446;2024-01-07T15:01:03;10.80;;;8.10;;
36185;SDS011;22228;53.222;7.446;2024-01-07T15:04:24;13.17;;;9.57;;
36185;SDS011;22228;53.222;7.446;2024-01-07T15:07:46;16.87;;;10.57;;
36185;SDS011;22228;53.222;7.446;2024-01-07T15:11:08;9.70;;;7.40;;
36185;SDS011;22228;53.222;7.446;2024-01-07T15:14:28;14.90;;;9.33;;
36185;SDS011;22228;53.222;7.446;2024-01-07T15:17:50;13.67;;;8.87;;
36185;SDS011;22228;53.222;7.446;2024-01-07T15:21:11;11.27;;;6.50;;
36185;SDS011;22228;53.222;7.446;2024-01-07T15:24:33;9.57;;;7.43;;
36185;SDS011;22228;53.222;7.446;2024-01-07T15:27:54;5.50;;;3.57;;
36185;SDS011;22228;53.222;7.446;2024-01-07T15:31:14;16.80;;;9.77;;
36185;SDS011;22228;53.222;7.446;2024-01-07T15:34:36;7.30;;;5.67;;
36185;SDS011;22228;53.222;7.446;2024-01-07T15:37:57;8.77;;;6.53;;
36185;SDS011;22228;53.222;7.446;2024-01-07T15:41:18;4.80;;;3.47;;
36185;SDS011;22228;53.222;7.446;2024-01-07T15:44:38;4.10;;;3.80;;
36185;SDS011;22228;53.222;7.446;2024-01-07T15:48:00;4.10;;;3.70;;
36185;SDS011;22228;53.222;7.446;2024-01-07T15:51:21;4.53;;;4.17;;
36185;SDS011;22228;53.222;7.446;2024-01-07T15:54:42;6.30;;;5.77;;
36185;SDS011;22228;53.222;7.446;2024-01-07T15:58:03;5.80;;;4.90;;
36185;SDS011;22228;53.222;7.446;2024-01-07T16:01:23;4.70;;;4.30;;
36185;SDS011;22228;53.222;7.446;2024-01-07T16:04:44;5.53;;;4.30;;
36185;SDS011;22228;53.222;7.446;2024-01-07T16:08:06;6.80;;;5.63;;
36185;SDS011;22228;53.222;7.446;2024-01-07T16:11:27;5.77;;;4.80;;
36185;SDS011;22228;53.222;7.446;2024-01-07T16:14:48;7.05;;;5.80;;
36185;SDS011;22228;53.222;7.446;2024-01-07T16:18:08;10.77;;;8.37;;
36185;SDS011;22228;53.222;7.446;2024-01-07T16:21:28;7.23;;;6.00;;
36185;SDS011;22228;53.222;7.446;2024-01-07T16:24:50;4.07;;;3.77;;
36185;SDS011;22228;53.222;7.446;2024-01-07T16:28:11;3.67;;;3.30;;
36185;SDS011;22228;53.222;7.446;2024-01-07T16:31:31;4.80;;;3.80;;
36185;SDS011;22228;53.222;7.446;2024-01-07T16:34:54;3.87;;;3.47;;
36185;SDS011;22228;53.222;7.446;2024-01-07T16:38:15;3.87;;;2.93;;
36185;SDS011;22228;53.222;7.446;2024-01-07T16:41:37;3.43;;;3.00;;
36185;SDS011;22228;53.222;7.446;2024-01-07T16:44:58;4.43;;;3.27;;
36185;SDS011;22228;53.222;7.446;2024-01-07T16:48:18;4.30;;;3.93;;
36185;SDS011;22228;53.222;7.446;2024-01-07T16:51:39;7.10;;;3.63;;
36185;SDS011;22228;53.222;7.446;2024-01-07T16:54:59;5.73;;;4.63;;
36185;SDS011;22228;53.222;7.446;2024-01-07T16:58:21;4.40;;;3.60;;
36185;SDS011;22228;53.222;7.446;2024-01-07T17:01:42;4.97;;;4.30;;
36185;SDS011;22228;53.222;7.446;2024-01-07T17:05:03;6.30;;;4.93;;
36185;SDS011;22228;53.222;7.446;2024-01-07T17:08:24;5.30;;;4.80;;
36185;SDS011;22228;53.222;7.446;2024-01-07T17:11:45;5.50;;;4.40;;
36185;SDS011;22228;53.222;7.446;2024-01-07T17:15:07;5.87;;;5.13;;
36185;SDS011;22228;53.222;7.446;2024-01-07T17:18:29;5.20;;;4.60;;
36185;SDS011;22228;53.222;7.446;2024-01-07T17:21:49;4.73;;;4.00;;
36185;SDS011;22228;53.222;7.446;2024-01-07T17:25:10;6.83;;;5.00;;
36185;SDS011;22228;53.222;7.446;2024-01-07T17:28:31;12.07;;;8.40;;
36185;SDS011;22228;53.222;7.446;2024-01-07T17:31:53;7.57;;;6.07;;
36185;SDS011;22228;53.222;7.446;2024-01-07T17:35:14;6.03;;;5.33;;
36185;SDS011;22228;53.222;7.446;2024-01-07T17:38:35;5.13;;;4.20;;
36185;SDS011;22228;53.222;7.446;2024-01-07T17:41:56;5.70;;;5.30;;
36185;SDS011;22228;53.222;7.446;2024-01-07T17:45:17;5.30;;;4.90;;
36185;SDS011;22228;53.222;7.446;2024-01-07T17:48:41;3.70;;;3.40;;
36185;SDS011;22228;53.222;7.446;2024-01-07T17:52:01;4.20;;;3.67;;
36185;SDS011;22228;53.222;7.446;2024-01-07T17:55:23;3.27;;;2.97;;
36185;SDS011;22228;53.222;7.446;2024-01-07T17:58:43;3.30;;;2.93;;
36185;SDS011;22228;53.222;7.446;2024-01-07T18:02:04;2.53;;;2.33;;
36185;SDS011;22228;53.222;7.446;2024-01-07T18:05:26;3.77;;;3.47;;
36185;SDS011;22228;53.222;7.446;2024-01-07T18:08:47;3.07;;;2.67;;
36185;SDS011;22228;53.222;7.446;2024-01-07T18:12:07;3.43;;;2.93;;
36185;SDS011;22228;53.222;7.446;2024-01-07T18:15:28;3.73;;;2.60;;
36185;SDS011;22228;53.222;7.446;2024-01-07T18:18:49;2.50;;;2.30;;
36185;SDS011;22228;53.222;7.446;2024-01-07T18:22:10;3.17;;;2.87;;
36185;SDS011;22228;53.222;7.446;2024-01-07T18:25:32;4.67;;;3.17;;
36185;SDS011;22228;53.222;7.446;2024-01-07T18:28:52;3.00;;;2.80;;
36185;SDS011;22228;53.222;7.446;2024-01-07T18:32:13;3.57;;;2.30;;
36185;SDS011;22228;53.222;7.446;2024-01-07T18:35:33;2.63;;;2.47;;
36185;SDS011;22228;53.222;7.446;2024-01-07T18:38:56;2.93;;;2.73;;
36185;SDS011;22228;53.222;7.446;2024-01-07T18:42:16;2.73;;;2.53;;
36185;SDS011;22228;53.222;7.446;2024-01-07T18:45:37;2.90;;;2.40;;
36185;SDS011;22228;53.222;7.446;2024-01-07T18:48:58;2.83;;;2.63;;
36185;SDS011;22228;53.222;7.446;2024-01-07T18:52:19;3.53;;;3.33;;
36185;SDS011;22228;53.222;7.446;2024-01-07T18:55:40;3.00;;;2.80;;
36185;SDS011;22228;53.222;7.446;2024-01-07T18:59:04;5.73;;;5.17;;
36185;SDS011;22228;53.222;7.446;2024-01-07T19:02:25;5.83;;;5.30;;
36185;SDS011;22228;53.222;7.446;2024-01-07T19:05:45;8.73;;;8.23;;
36185;SDS011;22228;53.222;7.446;2024-01-07T19:09:06;10.67;;;9.97;;
36185;SDS011;22228;53.222;7.446;2024-01-07T19:12:29;5.27;;;4.97;;
36185;SDS011;22228;53.222;7.446;2024-01-07T19:15:50;4.73;;;4.33;;
36185;SDS011;22228;53.222;7.446;2024-01-07T19:19:10;4.23;;;3.40;;
36185;SDS011;22228;53.222;7.446;2024-01-07T19:22:31;4.00;;;3.70;;
36185;SDS011;22228;53.222;7.446;2024-01-07T19:25:53;4.60;;;3.97;;
36185;SDS011;22228;53.222;7.446;2024-01-07T19:29:16;3.70;;;3.13;;
36185;SDS011;22228;53.222;7.446;2024-01-07T19:32:36;3.80;;;3.60;;
36185;SDS011;22228;53.222;7.446;2024-01-07T19:35:57;3.57;;;3.27;;
36185;SDS011;22228;53.222;7.446;2024-01-07T19:39:17;2.93;;;2.73;;
36185;SDS011;22228;53.222;7.446;2024-01-07T19:42:38;3.77;;;2.80;;
36185;SDS011;22228;53.222;7.446;2024-01-07T19:46:00;3.27;;;2.97;;
36185;SDS011;22228;53.222;7.446;2024-01-07T19:49:21;3.20;;;3.00;;
36185;SDS011;22228;53.222;7.446;2024-01-07T19:52:41;4.33;;;3.83;;
36185;SDS011;22228;53.222;7.446;2024-01-07T19:56:04;3.00;;;2.77;;
36185;SDS011;22228;53.222;7.446;2024-01-07T19:59:26;5.07;;;4.67;;
36185;SDS011;22228;53.222;7.446;2024-01-07T20:02:49;6.13;;;5.20;;
36185;SDS011;22228;53.222;7.446;2024-01-07T20:06:11;7.97;;;6.33;;
36185;SDS011;22228;53.222;7.446;2024-01-07T20:09:32;4.80;;;4.40;;
36185;SDS011;22228;53.222;7.446;2024-01-07T20:12:53;7.83;;;6.87;;
36185;SDS011;22228;53.222;7.446;2024-01-07T20:16:17;4.20;;;3.90;;
36185;SDS011;22228;53.222;7.446;2024-01-07T20:19:40;3.73;;;3.43;;
36185;SDS011;22228;53.222;7.446;2024-01-07T20:23:02;3.90;;;3.60;;
36185;SDS011;22228;53.222;7.446;2024-01-07T20:26:22;4.90;;;4.27;;
36185;SDS011;22228;53.222;7.446;2024-01-07T20:29:43;2.80;;;2.53;;
36185;SDS011;22228;53.222;7.446;2024-01-07T20:33:04;3.93;;;3.40;;
36185;SDS011;22228;53.222;7.446;2024-01-07T20:36:30;4.03;;;2.53;;
36185;SDS011;22228;53.222;7.446;2024-01-07T20:39:50;3.53;;;3.23;;
36185;SDS011;22228;53.222;7.446;2024-01-07T20:43:11;3.70;;;3.10;;
36185;SDS011;22228;53.222;7.446;2024-01-07T20:46:31;3.13;;;2.63;;
36185;SDS011;22228;53.222;7.446;2024-01-07T20:49:53;5.30;;;1.90;;
36185;SDS011;22228;53.222;7.446;2024-01-07T20:53:15;3.23;;;2.83;;
36185;SDS011;22228;53.222;7.446;2024-01-07T20:56:37;3.63;;;2.87;;
36185;SDS011;22228;53.222;7.446;2024-01-07T20:59:58;2.90;;;2.60;;
36185;SDS011;22228;53.222;7.446;2024-01-07T21:03:18;3.17;;;2.97;;
36185;SDS011;22228;53.222;7.446;2024-01-07T21:06:39;4.00;;;3.03;;
36185;SDS011;22228;53.222;7.446;2024-01-07T21:10:01;3.10;;;2.90;;
36185;SDS011;22228;53.222;7.446;2024-01-07T21:13:21;3.17;;;2.97;;
36185;SDS011;22228;53.222;7.446;2024-01-07T21:16:42;5.00;;;3.63;;
36185;SDS011;22228;53.222;7.446;2024-01-07T21:20:02;6.80;;;5.77;;
36185;SDS011;22228;53.222;7.446;2024-01-07T21:23:23;4.37;;;3.40;;
36185;SDS011;22228;53.222;7.446;2024-01-07T21:26:45;3.83;;;3.50;;
36185;SDS011;22228;53.222;7.446;2024-01-07T21:30:06;3.53;;;3.23;;
36185;SDS011;22228;53.222;7.446;2024-01-07T21:33:27;7.50;;;4.57;;
36185;SDS011;22228;53.222;7.446;2024-01-07T21:36:47;4.43;;;3.03;;
36185;SDS011;22228;53.222;7.446;2024-01-07T21:40:08;5.03;;;3.40;;
36185;SDS011;22228;53.222;7.446;2024-01-07T21:43:31;5.90;;;4.13;;
36185;SDS011;22228;53.222;7.446;2024-01-07T21:46:52;4.27;;;3.87;;
36185;SDS011;22228;53.222;7.446;2024-01-07T21:50:13;9.13;;;4.47;;
36185;SDS011;22228;53.222;7.446;2024-01-07T21:53:34;6.33;;;4.17;;
36185;SDS011;22228;53.222;7.446;2024-01-07T21:56:54;4.63;;;3.40;;
36185;SDS011;22228;53.222;7.446;2024-01-07T22:00:18;5.43;;;3.63;;
36185;SDS011;22228;53.222;7.446;2024-01-07T22:03:39;3.03;;;2.73;;
36185;SDS011;22228;53.222;7.446;2024-01-07T22:06:59;3.60;;;3.30;;
36185;SDS011;22228;53.222;7.446;2024-01-07T22:10:20;5.23;;;3.33;;
36185;SDS011;22228;53.222;7.446;2024-01-07T22:13:40;2.87;;;2.67;;
36185;SDS011;22228;53.222;7.446;2024-01-07T22:17:03;3.93;;;3.53;;
36185;SDS011;22228;53.222;7.446;2024-01-07T22:20:24;4.13;;;3.13;;
36185;SDS011;22228;53.222;7.446;2024-01-07T22:23:45;3.30;;;3.10;;
36185;SDS011;22228;53.222;7.446;2024-01-07T22:27:06;3.13;;;2.83;;
36185;SDS011;22228;53.222;7.446;2024-01-07T22:30:27;7.53;;;3.90;;
36185;SDS011;22228;53.222;7.446;2024-01-07T22:33:49;4.27;;;3.70;;
36185;SDS011;22228;53.222;7.446;2024-01-07T22:37:09;4.47;;;3.97;;
36185;SDS011;22228;53.222;7.446;2024-01-07T22:40:30;4.67;;;3.80;;
36185;SDS011;22228;53.222;7.446;2024-01-07T22:43:51;4.23;;;3.77;;
36185;SDS011;22228;53.222;7.446;2024-01-07T22:47:11;5.37;;;3.80;;
36185;SDS011;22228;53.222;7.446;2024-01-07T22:50:34;5.30;;;3.63;;
36185;SDS011;22228;53.222;7.446;2024-01-07T22:53:54;5.97;;;3.90;;
36185;SDS011;22228;53.222;7.446;2024-01-07T22:57:15;4.53;;;4.13;;
36185;SDS011;22228;53.222;7.446;2024-01-07T23:00:35;4.43;;;3.70;;
36185;SDS011;22228;53.222;7.446;2024-01-07T23:03:56;5.47;;;4.97;;
36185;SDS011;22228;53.222;7.446;2024-01-07T23:07:18;9.30;;;6.50;;